Time;durP1;ratioP1;P1;durP2;ratioP2;P2;SDS_P1;SDS_P2;PMS_P1;PMS_P2;Temp;Humidity;BMP_temperature;BMP_pressure;BME280_temperature;BME280_humidity;BME280_pressure;Samples;Min_cycle;Max_cycle;Signal;HPM_P1;HPM_P2
2023/01/17 00:01:55;;;;;;;1.93;1.40;;;;;;;;;;5057178;28;20762;-64
2023/01/17 00:09:57;;;;;;;2.27;1.60;;;;;;;;;;5073743;28;20298;-64
2023/01/17 00:12:25;;;;;;;1.60;1.50;;;;;;;;;;5061347;28;20262;-64
2023/01/17 00:14:54;;;;;;;1.50;1.40;;;;;;;;;;5068262;28;20221;-64
2023/01/17 00:17:22;;;;;;;1.63;1.53;;;;;;;;;;5057115;28;20258;-63
2023/01/17 01:35:41;;;;;;;1.60;1.50;;;;;;;;;;5091442;28;20221;-63
2023/01/17 01:38:09;;;;;;;1.40;1.40;;;;;;;;;;5061526;28;20600;-64
2023/01/17 01:40:41;;;;;;;3.40;1.50;;;;;;;;;;5059530;28;20233;-63
2023/01/17 01:43:09;;;;;;;1.83;1.70;;;;;;;;;;5052922;28;20233;-64
2023/01/17 01:45:37;;;;;;;1.50;1.40;;;;;;;;;;5063877;28;20313;-64
2023/01/17 01:48:31;;;;;;;1.80;1.50;;;;;;;;;;5083480;28;20209;-63
2023/01/17 01:51:00;;;;;;;1.63;1.53;;;;;;;;;;5064550;28;20229;-62
2023/01/17 01:53:28;;;;;;;1.70;1.60;;;;;;;;;;5061931;28;20394;-63
2023/01/17 01:55:55;;;;;;;3.03;1.50;;;;;;;;;;5058878;28;20329;-64
2023/01/17 01:58:24;;;;;;;1.70;1.57;;;;;;;;;;5067692;28;20929;-64
2023/01/17 02:00:52;;;;;;;2.03;1.70;;;;;;;;;;5061439;28;20246;-64
2023/01/17 02:03:25;;;;;;;1.63;1.53;;;;;;;;;;5065464;28;20209;-63
2023/01/17 02:05:52;;;;;;;1.57;1.57;;;;;;;;;;5060581;28;20683;-62
2023/01/17 02:08:22;;;;;;;2.33;1.60;;;;;;;;;;5063608;28;20197;-63
2023/01/17 02:10:50;;;;;;;2.13;1.90;;;;;;;;;;5064038;28;20294;-63
2023/01/17 02:13:19;;;;;;;2.43;1.90;;;;;;;;;;5065919;28;20262;-64
2023/01/17 02:15:59;;;;;;;2.30;1.60;;;;;;;;;;5062658;28;20281;-62
2023/01/17 02:18:29;;;;;;;2.37;1.77;;;;;;;;;;5063848;28;20244;-63
2023/01/17 02:21:02;;;;;;;1.70;1.60;;;;;;;;;;5070340;28;20617;-64
2023/01/17 02:23:32;;;;;;;2.77;1.60;;;;;;;;;;5067220;28;20217;-63
2023/01/17 02:26:12;;;;;;;1.73;1.63;;;;;;;;;;5067489;28;20232;-63
2023/01/17 02:28:46;;;;;;;1.83;1.70;;;;;;;;;;5064583;28;20281;-62
2023/01/17 02:31:25;;;;;;;2.00;1.80;;;;;;;;;;5081310;28;20266;-64
2023/01/17 02:34:11;;;;;;;1.87;1.77;;;;;;;;;;5069884;28;20212;-64
2023/01/17 02:36:43;;;;;;;1.60;1.60;;;;;;;;;;5072839;28;20311;-63
2023/01/17 02:39:10;;;;;;;1.77;1.67;;;;;;;;;;5063138;28;20205;-64
2023/01/17 02:41:42;;;;;;;1.70;1.60;;;;;;;;;;5057681;28;20223;-63
2023/01/17 02:44:11;;;;;;;1.83;1.73;;;;;;;;;;5068560;28;20236;-62
2023/01/17 02:47:08;;;;;;;1.70;1.60;;;;;;;;;;5060880;28;20225;-63
2023/01/17 02:49:35;;;;;;;2.00;1.80;;;;;;;;;;5045874;28;20232;-63
2023/01/17 02:52:17;;;;;;;1.80;1.70;;;;;;;;;;5085604;28;20661;-63
2023/01/17 02:54:59;;;;;;;1.70;1.60;;;;;;;;;;5059614;28;20204;-62
2023/01/17 02:57:27;;;;;;;1.60;1.40;;;;;;;;;;5066950;28;20206;-63
2023/01/17 03:00:17;;;;;;;1.57;1.57;;;;;;;;;;5075952;28;20239;-64
2023/01/17 03:03:17;;;;;;;2.80;1.53;;;;;;;;;;5065390;28;20688;-64
2023/01/17 03:05:47;;;;;;;1.80;1.70;;;;;;;;;;5029658;28;20855;-63
2023/01/17 03:08:15;;;;;;;1.40;1.40;;;;;;;;;;5065565;28;20254;-64
2023/01/17 03:10:43;;;;;;;1.40;1.40;;;;;;;;;;5066990;28;20272;-64
2023/01/17 03:13:11;;;;;;;1.50;1.50;;;;;;;;;;5069424;28;20227;-64
2023/01/17 03:15:38;;;;;;;1.40;1.40;;;;;;;;;;5060215;28;20240;-64
2023/01/17 03:18:08;;;;;;;1.30;1.30;;;;;;;;;;5064048;28;20212;-64
2023/01/17 03:20:36;;;;;;;2.00;1.60;;;;;;;;;;5067426;28;20303;-62
2023/01/17 03:23:03;;;;;;;1.47;1.47;;;;;;;;;;5076536;28;20209;-63
2023/01/17 03:25:31;;;;;;;1.30;1.30;;;;;;;;;;5067208;28;20647;-63
2023/01/17 03:27:58;;;;;;;1.73;1.63;;;;;;;;;;5064860;28;20258;-63
2023/01/17 03:30:25;;;;;;;1.43;1.33;;;;;;;;;;5067052;28;20204;-63
2023/01/17 03:32:53;;;;;;;1.50;1.50;;;;;;;;;;5073891;28;20208;-64
2023/01/17 03:35:20;;;;;;;1.90;1.57;;;;;;;;;;5092786;28;20247;-64
2023/01/17 03:37:47;;;;;;;1.53;1.50;;;;;;;;;;5056062;28;20341;-64
2023/01/17 03:40:15;;;;;;;1.33;1.33;;;;;;;;;;5058282;28;20681;-63
2023/01/17 03:42:43;;;;;;;4.60;4.20;;;;;;;;;;5068712;28;20201;-63
2023/01/17 03:45:10;;;;;;;1.40;1.40;;;;;;;;;;5064229;28;20261;-62
2023/01/17 03:47:38;;;;;;;1.60;1.50;;;;;;;;;;5067784;28;20526;-62
2023/01/17 03:50:07;;;;;;;2.00;1.40;;;;;;;;;;5073864;28;20208;-62
2023/01/17 03:52:34;;;;;;;2.53;1.43;;;;;;;;;;5067026;28;20858;-63
2023/01/17 03:55:01;;;;;;;1.57;1.47;;;;;;;;;;5061826;28;20309;-64
2023/01/17 03:57:28;;;;;;;2.33;1.50;;;;;;;;;;5066945;28;20221;-64
2023/01/17 03:59:56;;;;;;;1.40;1.40;;;;;;;;;;5064900;28;20223;-64
2023/01/17 04:02:23;;;;;;;1.60;1.60;;;;;;;;;;5060587;28;20575;-63
2023/01/17 04:04:51;;;;;;;1.47;1.47;;;;;;;;;;5062172;28;20574;-64
2023/01/17 04:07:19;;;;;;;1.33;1.33;;;;;;;;;;5054685;28;20224;-65
2023/01/17 04:09:46;;;;;;;1.57;1.50;;;;;;;;;;5065829;28;20254;-64
2023/01/17 04:12:14;;;;;;;1.60;1.50;;;;;;;;;;5060774;28;20693;-64
2023/01/17 04:14:41;;;;;;;1.50;1.40;;;;;;;;;;5056671;28;20249;-63
2023/01/17 04:17:12;;;;;;;1.43;1.37;;;;;;;;;;5061537;28;20232;-63
2023/01/17 04:19:40;;;;;;;1.60;1.47;;;;;;;;;;5064821;28;20341;-64
2023/01/17 04:22:08;;;;;;;1.57;1.30;;;;;;;;;;5071033;28;20213;-63
2023/01/17 04:24:35;;;;;;;2.40;1.40;;;;;;;;;;5055550;28;20200;-63
2023/01/17 04:27:04;;;;;;;3.80;2.33;;;;;;;;;;5064903;28;20664;-65
2023/01/17 04:29:31;;;;;;;1.20;1.20;;;;;;;;;;5059691;28;20217;-64
2023/01/17 04:31:58;;;;;;;1.40;1.30;;;;;;;;;;5063314;28;20259;-64
2023/01/17 04:34:26;;;;;;;1.40;1.40;;;;;;;;;;5056577;28;20650;-64
2023/01/17 04:36:53;;;;;;;1.80;1.30;;;;;;;;;;5063328;28;20650;-63
2023/01/17 04:39:20;;;;;;;1.40;1.30;;;;;;;;;;5057184;28;20617;-63
2023/01/17 04:41:48;;;;;;;1.40;1.30;;;;;;;;;;5049768;28;20213;-62
2023/01/17 04:44:15;;;;;;;1.50;1.40;;;;;;;;;;5052651;28;20325;-63
2023/01/17 04:46:43;;;;;;;1.40;1.40;;;;;;;;;;5056314;28;20755;-65
2023/01/17 04:49:12;;;;;;;1.30;1.30;;;;;;;;;;5041191;28;20275;-62
2023/01/17 04:51:39;;;;;;;2.27;2.07;;;;;;;;;;5044687;28;20209;-63
2023/01/17 04:54:06;;;;;;;11.57;6.83;;;;;;;;;;5046142;28;20303;-63
2023/01/17 04:56:34;;;;;;;32.00;19.80;;;;;;;;;;5071704;28;20225;-63
2023/01/17 04:59:01;;;;;;;4.73;3.83;;;;;;;;;;5053540;28;20287;-64
2023/01/17 05:01:29;;;;;;;2.10;2.00;;;;;;;;;;5052363;28;20301;-63
2023/01/17 05:03:56;;;;;;;1.80;1.70;;;;;;;;;;5052043;28;20217;-64
2023/01/17 05:06:24;;;;;;;1.60;1.50;;;;;;;;;;5056063;28;20237;-64
2023/01/17 05:08:51;;;;;;;2.70;2.10;;;;;;;;;;5058624;28;20238;-64
2023/01/17 05:11:19;;;;;;;3.30;2.27;;;;;;;;;;5062916;28;20291;-64
2023/01/17 05:13:47;;;;;;;2.13;2.03;;;;;;;;;;5063388;28;20235;-64
2023/01/17 05:16:17;;;;;;;1.93;1.83;;;;;;;;;;5064508;28;20660;-63
2023/01/17 05:18:45;;;;;;;2.53;2.33;;;;;;;;;;5069301;28;20205;-63
2023/01/17 05:21:12;;;;;;;2.30;2.20;;;;;;;;;;5070568;28;20236;-63
2023/01/17 05:23:41;;;;;;;1.50;1.50;;;;;;;;;;5070812;28;20232;-62
2023/01/17 05:26:08;;;;;;;2.27;2.07;;;;;;;;;;5069809;28;20224;-64
2023/01/17 05:28:39;;;;;;;2.50;1.53;;;;;;;;;;5079509;28;20280;-63
2023/01/17 05:31:07;;;;;;;2.43;2.23;;;;;;;;;;5069598;28;20201;-62
2023/01/17 05:33:34;;;;;;;2.80;2.60;;;;;;;;;;5069312;28;20675;-63
2023/01/17 05:36:02;;;;;;;3.70;3.40;;;;;;;;;;5086795;28;20787;-64
2023/01/17 05:38:29;;;;;;;4.43;4.03;;;;;;;;;;5071957;28;20217;-64
2023/01/17 05:40:59;;;;;;;4.10;3.60;;;;;;;;;;5072273;28;20232;-62
2023/01/17 05:43:28;;;;;;;3.40;3.07;;;;;;;;;;5070554;28;20292;-62
2023/01/17 05:45:55;;;;;;;2.57;2.37;;;;;;;;;;5068443;28;20294;-62
2023/01/17 05:48:22;;;;;;;2.57;2.37;;;;;;;;;;5071629;28;20201;-62
2023/01/17 05:50:51;;;;;;;3.20;2.90;;;;;;;;;;5063049;28;20205;-62
2023/01/17 05:53:18;;;;;;;14.27;10.17;;;;;;;;;;5074010;28;20235;-61
2023/01/17 05:55:46;;;;;;;5.83;4.83;;;;;;;;;;5068660;28;20247;-63
2023/01/17 05:58:15;;;;;;;7.63;5.20;;;;;;;;;;5070634;28;20785;-63
2023/01/17 06:00:42;;;;;;;8.97;6.20;;;;;;;;;;5070696;28;20232;-64
2023/01/17 06:03:10;;;;;;;5.17;4.27;;;;;;;;;;5071879;28;20264;-63
2023/01/17 06:05:41;;;;;;;5.70;3.80;;;;;;;;;;5077333;28;20751;-62
2023/01/17 06:08:10;;;;;;;4.60;3.43;;;;;;;;;;5070974;28;20206;-62
2023/01/17 06:10:37;;;;;;;4.60;3.60;;;;;;;;;;5071030;28;20259;-62
2023/01/17 06:13:06;;;;;;;4.67;4.10;;;;;;;;;;5067662;28;20205;-63
2023/01/17 06:15:34;;;;;;;4.40;3.57;;;;;;;;;;5078931;28;20330;-63
2023/01/17 06:18:09;;;;;;;6.10;3.20;;;;;;;;;;5067003;28;20270;-64
2023/01/17 06:20:36;;;;;;;3.40;3.10;;;;;;;;;;5073949;28;20236;-64
2023/01/17 06:23:04;;;;;;;3.77;2.90;;;;;;;;;;5067247;28;20230;-64
2023/01/17 06:25:36;;;;;;;3.13;2.70;;;;;;;;;;5071421;28;20264;-62
2023/01/17 06:28:04;;;;;;;2.60;2.43;;;;;;;;;;5072592;28;20705;-63
2023/01/17 06:30:31;;;;;;;2.47;2.30;;;;;;;;;;5067587;28;20206;-64
2023/01/17 06:33:00;;;;;;;2.90;2.60;;;;;;;;;;5066224;28;20236;-63
2023/01/17 06:35:28;;;;;;;4.50;3.60;;;;;;;;;;5080070;28;20794;-63
2023/01/17 06:37:57;;;;;;;4.00;3.33;;;;;;;;;;5063032;28;20229;-63
2023/01/17 06:40:24;;;;;;;3.97;3.20;;;;;;;;;;5077718;28;20275;-62
2023/01/17 06:42:51;;;;;;;4.90;3.10;;;;;;;;;;5086048;28;20197;-63
2023/01/17 06:45:19;;;;;;;4.23;2.80;;;;;;;;;;5068272;28;20282;-62
2023/01/17 06:47:46;;;;;;;3.47;3.17;;;;;;;;;;5066428;28;20308;-63
2023/01/17 06:50:14;;;;;;;5.47;3.67;;;;;;;;;;5072538;28;20212;-64
2023/01/17 06:52:42;;;;;;;4.40;4.00;;;;;;;;;;5067149;28;20201;-64
2023/01/17 06:55:09;;;;;;;7.57;6.87;;;;;;;;;;5074028;28;20309;-63
2023/01/17 06:57:37;;;;;;;9.20;8.30;;;;;;;;;;5064704;28;20291;-63
2023/01/17 07:00:04;;;;;;;5.83;5.23;;;;;;;;;;5069875;28;20240;-64
2023/01/17 07:02:32;;;;;;;7.03;5.67;;;;;;;;;;5066435;28;20269;-62
2023/01/17 07:04:59;;;;;;;11.70;7.33;;;;;;;;;;5069722;28;20233;-63
2023/01/17 07:07:27;;;;;;;8.60;5.83;;;;;;;;;;5065795;28;20248;-62
2023/01/17 07:09:54;;;;;;;5.27;2.70;;;;;;;;;;5066287;28;20243;-63
2023/01/17 07:12:21;;;;;;;2.93;2.40;;;;;;;;;;5061871;28;20235;-64
2023/01/17 07:14:48;;;;;;;2.83;2.63;;;;;;;;;;5065856;28;20193;-64
2023/01/17 07:17:16;;;;;;;4.80;3.00;;;;;;;;;;5066717;28;20232;-63
2023/01/17 07:19:43;;;;;;;13.23;8.50;;;;;;;;;;5061676;28;20205;-62
2023/01/17 07:22:11;;;;;;;17.33;8.87;;;;;;;;;;5068442;28;20228;-64
2023/01/17 07:24:38;;;;;;;18.57;10.37;;;;;;;;;;5058248;28;20216;-63
2023/01/17 07:27:07;;;;;;;29.80;13.40;;;;;;;;;;5080836;28;20754;-64
2023/01/17 07:29:34;;;;;;;47.00;19.07;;;;;;;;;;5073152;28;20214;-63
2023/01/17 07:32:02;;;;;;;24.00;10.47;;;;;;;;;;5079207;28;20296;-63
2023/01/17 07:34:29;;;;;;;8.83;5.30;;;;;;;;;;5073935;28;20681;-64
2023/01/17 07:36:56;;;;;;;11.90;5.87;;;;;;;;;;5071012;28;20255;-63
2023/01/17 07:39:23;;;;;;;8.93;6.03;;;;;;;;;;5067429;28;20244;-63
2023/01/17 07:41:51;;;;;;;9.33;5.70;;;;;;;;;;5064814;28;20303;-64
2023/01/17 07:44:18;;;;;;;10.27;6.17;;;;;;;;;;5067119;28;20211;-64
2023/01/17 07:46:45;;;;;;;4.90;3.70;;;;;;;;;;5066006;28;20263;-62
2023/01/17 07:49:13;;;;;;;7.07;4.17;;;;;;;;;;5067497;28;20216;-62
2023/01/17 07:51:40;;;;;;;7.37;4.07;;;;;;;;;;5066572;28;20250;-63
2023/01/17 07:54:08;;;;;;;3.93;3.17;;;;;;;;;;5066468;28;20581;-64
2023/01/17 07:56:35;;;;;;;3.57;2.53;;;;;;;;;;5068603;28;20673;-63
2023/01/17 07:59:02;;;;;;;2.40;2.20;;;;;;;;;;5081047;28;20305;-63
2023/01/17 08:01:30;;;;;;;2.20;2.00;;;;;;;;;;5073961;28;20196;-64
2023/01/17 08:03:58;;;;;;;3.73;2.70;;;;;;;;;;5068354;28;20208;-65
2023/01/17 08:06:26;;;;;;;17.07;9.77;;;;;;;;;;5064212;28;21656;-63
2023/01/17 08:08:55;;;;;;;11.73;7.87;;;;;;;;;;5066280;28;20215;-63
2023/01/17 08:11:23;;;;;;;10.50;7.17;;;;;;;;;;5067643;28;20196;-61
2023/01/17 08:13:56;;;;;;;8.83;5.93;;;;;;;;;;5075460;28;20236;-64
2023/01/17 08:16:23;;;;;;;6.27;4.57;;;;;;;;;;5062620;28;20239;-64
2023/01/17 08:18:51;;;;;;;3.33;3.03;;;;;;;;;;5069915;28;20205;-64
2023/01/17 08:21:18;;;;;;;4.30;3.50;;;;;;;;;;5064500;28;20899;-63
2023/01/17 08:23:49;;;;;;;8.30;6.70;;;;;;;;;;5061496;28;20208;-63
2023/01/17 08:26:20;;;;;;;6.40;5.80;;;;;;;;;;5071087;28;20697;-64
2023/01/17 08:28:59;;;;;;;7.20;6.50;;;;;;;;;;5059492;28;20205;-63
2023/01/17 08:31:30;;;;;;;6.93;6.23;;;;;;;;;;5053337;28;20254;-64
2023/01/17 08:33:57;;;;;;;4.50;4.10;;;;;;;;;;5067676;28;20701;-64
2023/01/17 08:36:26;;;;;;;4.77;3.43;;;;;;;;;;5067691;28;20260;-64
2023/01/17 08:38:54;;;;;;;4.23;3.50;;;;;;;;;;5068817;28;20569;-63
2023/01/17 08:41:22;;;;;;;5.37;4.87;;;;;;;;;;5072691;28;20224;-64
2023/01/17 08:43:51;;;;;;;5.00;4.13;;;;;;;;;;5064550;28;20663;-64
2023/01/17 08:46:19;;;;;;;4.80;4.30;;;;;;;;;;5057742;28;20264;-64
2023/01/17 08:48:46;;;;;;;6.27;5.27;;;;;;;;;;5063808;28;20842;-63
2023/01/17 08:51:13;;;;;;;7.10;5.00;;;;;;;;;;5067074;28;20251;-64
2023/01/17 08:53:41;;;;;;;9.47;6.17;;;;;;;;;;5069513;28;20201;-66
2023/01/17 08:56:09;;;;;;;6.87;5.67;;;;;;;;;;5063712;28;20231;-63
2023/01/17 08:58:36;;;;;;;8.10;6.13;;;;;;;;;;5056497;28;20307;-64
2023/01/17 09:01:04;;;;;;;8.93;6.97;;;;;;;;;;5067572;28;20205;-64
2023/01/17 09:03:33;;;;;;;8.57;7.47;;;;;;;;;;5053602;28;20602;-63
2023/01/17 09:06:04;;;;;;;10.43;7.87;;;;;;;;;;5062380;28;20231;-62
2023/01/17 09:08:32;;;;;;;6.20;5.60;;;;;;;;;;5066539;28;20279;-63
2023/01/17 09:11:07;;;;;;;6.87;5.77;;;;;;;;;;5062025;28;20654;-64
2023/01/17 09:13:35;;;;;;;5.33;4.83;;;;;;;;;;5071925;28;20677;-63
2023/01/17 09:16:03;;;;;;;3.77;3.47;;;;;;;;;;5058926;28;20711;-64
2023/01/17 09:18:31;;;;;;;3.87;3.40;;;;;;;;;;5068035;28;20304;-63
2023/01/17 09:20:58;;;;;;;8.73;6.13;;;;;;;;;;5065613;28;20221;-64
2023/01/17 09:23:27;;;;;;;4.80;4.40;;;;;;;;;;5072891;28;20232;-63
2023/01/17 09:25:58;;;;;;;3.40;3.10;;;;;;;;;;5078924;28;20229;-64
2023/01/17 09:28:26;;;;;;;3.80;3.40;;;;;;;;;;5086555;28;20252;-64
2023/01/17 09:30:54;;;;;;;4.70;3.30;;;;;;;;;;5082790;28;20577;-63
2023/01/17 09:33:24;;;;;;;3.27;2.97;;;;;;;;;;5055052;28;20675;-64
2023/01/17 09:35:52;;;;;;;4.13;3.50;;;;;;;;;;5062163;28;20253;-64
2023/01/17 09:38:20;;;;;;;3.80;3.50;;;;;;;;;;5076678;28;20553;-64
2023/01/17 09:40:48;;;;;;;3.17;2.97;;;;;;;;;;5065679;28;20208;-63
2023/01/17 09:43:22;;;;;;;3.47;3.17;;;;;;;;;;5070449;28;20212;-64
2023/01/17 09:45:50;;;;;;;4.50;4.10;;;;;;;;;;5072992;28;20246;-63
2023/01/17 09:48:24;;;;;;;4.60;4.13;;;;;;;;;;5069382;28;20831;-64
2023/01/17 09:51:01;;;;;;;6.20;5.23;;;;;;;;;;5067018;28;20779;-63
2023/01/17 09:53:31;;;;;;;5.67;5.13;;;;;;;;;;5062676;28;20209;-64
2023/01/17 09:56:00;;;;;;;3.83;3.53;;;;;;;;;;5063201;28;20254;-64
2023/01/17 09:58:43;;;;;;;3.60;3.30;;;;;;;;;;5079466;28;20240;-63
2023/01/17 10:01:25;;;;;;;3.40;3.03;;;;;;;;;;5071265;28;20213;-64
2023/01/17 10:04:02;;;;;;;3.43;3.13;;;;;;;;;;5072910;28;20197;-64
2023/01/17 10:06:49;;;;;;;3.77;2.93;;;;;;;;;;5067076;28;20224;-64
2023/01/17 10:09:23;;;;;;;3.47;2.93;;;;;;;;;;5073656;28;20295;-63
2023/01/17 10:11:53;;;;;;;2.73;2.57;;;;;;;;;;5081158;28;20217;-65
2023/01/17 10:14:39;;;;;;;2.53;2.33;;;;;;;;;;5070453;28;20231;-63
2023/01/17 10:17:06;;;;;;;2.80;2.20;;;;;;;;;;5060842;28;20236;-62
2023/01/17 10:19:52;;;;;;;2.40;2.30;;;;;;;;;;5080589;28;20648;-64
2023/01/17 10:22:29;;;;;;;2.87;2.37;;;;;;;;;;5063813;28;20649;-65
2023/01/17 10:25:07;;;;;;;3.10;2.90;;;;;;;;;;5064047;28;20213;-63
2023/01/17 10:27:37;;;;;;;2.60;2.40;;;;;;;;;;5070892;28;20213;-65
2023/01/17 10:30:14;;;;;;;2.00;1.80;;;;;;;;;;5088135;28;20262;-64
2023/01/17 10:32:45;;;;;;;1.30;1.30;;;;;;;;;;5084030;28;20200;-64
2023/01/17 10:35:34;;;;;;;1.50;1.40;;;;;;;;;;5070776;28;20711;-63
2023/01/17 10:38:03;;;;;;;2.70;1.30;;;;;;;;;;5066124;28;20236;-64
2023/01/17 10:40:53;;;;;;;1.60;1.50;;;;;;;;;;5063675;28;20232;-64
2023/01/17 10:43:27;;;;;;;1.70;1.60;;;;;;;;;;5063497;28;20208;-65
2023/01/17 10:45:55;;;;;;;1.53;1.43;;;;;;;;;;5070351;28;20229;-64
2023/01/17 10:48:41;;;;;;;2.00;1.40;;;;;;;;;;5061308;28;20343;-64
2023/01/17 10:51:18;;;;;;;1.50;1.40;;;;;;;;;;5068231;28;20238;-64
2023/01/17 10:54:03;;;;;;;2.50;1.40;;;;;;;;;;5067137;28;20254;-65
2023/01/17 10:56:31;;;;;;;1.13;1.13;;;;;;;;;;5072069;28;20250;-64
2023/01/17 10:59:16;;;;;;;3.87;1.37;;;;;;;;;;5067312;28;20308;-65
2023/01/17 11:01:44;;;;;;;1.80;1.20;;;;;;;;;;5063696;28;20304;-65
2023/01/17 11:04:19;;;;;;;3.03;1.90;;;;;;;;;;5072377;28;20259;-65
2023/01/17 11:06:47;;;;;;;5.17;2.07;;;;;;;;;;5071311;28;20255;-65
2023/01/17 11:09:37;;;;;;;3.17;2.13;;;;;;;;;;5075821;28;20288;-65
2023/01/17 11:12:04;;;;;;;2.77;1.70;;;;;;;;;;5063077;28;20640;-65
2023/01/17 11:14:34;;;;;;;3.40;2.20;;;;;;;;;;5060679;28;20773;-65
2023/01/17 11:17:04;;;;;;;2.93;1.80;;;;;;;;;;5069592;28;20237;-64
2023/01/17 11:19:35;;;;;;;1.87;1.60;;;;;;;;;;5063602;28;20256;-64
2023/01/17 11:22:04;;;;;;;2.43;1.80;;;;;;;;;;5061644;28;20876;-63
2023/01/17 11:24:36;;;;;;;2.13;1.90;;;;;;;;;;5061629;28;20236;-63
2023/01/17 11:27:04;;;;;;;1.80;1.70;;;;;;;;;;5065967;28;20264;-64
2023/01/17 11:29:36;;;;;;;4.03;2.00;;;;;;;;;;5080807;28;20205;-65
2023/01/17 11:32:22;;;;;;;6.73;2.40;;;;;;;;;;5078726;28;20200;-64
2023/01/17 11:35:05;;;;;;;3.00;1.70;;;;;;;;;;5079410;28;20209;-63
2023/01/17 11:37:32;;;;;;;1.90;1.80;;;;;;;;;;5068524;28;20216;-63
2023/01/17 11:40:15;;;;;;;2.10;1.57;;;;;;;;;;5072578;28;20214;-64
2023/01/17 11:42:42;;;;;;;4.40;2.30;;;;;;;;;;5064657;28;20266;-63
2023/01/17 11:45:24;;;;;;;2.10;1.80;;;;;;;;;;5063884;28;20701;-61
2023/01/17 11:48:04;;;;;;;1.60;1.50;;;;;;;;;;5066494;28;21041;-63
2023/01/17 11:50:31;;;;;;;2.60;2.27;;;;;;;;;;5078453;28;20270;-62
2023/01/17 11:53:18;;;;;;;3.03;2.17;;;;;;;;;;5073045;28;20197;-62
2023/01/17 11:55:55;;;;;;;1.90;1.80;;;;;;;;;;5058922;28;20220;-63
2023/01/17 11:58:23;;;;;;;2.93;1.77;;;;;;;;;;5060153;28;20240;-63
2023/01/17 12:00:59;;;;;;;4.47;2.83;;;;;;;;;;5066235;28;20210;-63
2023/01/17 12:03:30;;;;;;;3.47;1.83;;;;;;;;;;5061810;28;20213;-62
2023/01/17 12:06:16;;;;;;;3.50;2.07;;;;;;;;;;5063206;28;20228;-63
2023/01/17 12:08:53;;;;;;;1.60;1.47;;;;;;;;;;5057378;28;20252;-63
2023/01/17 12:11:29;;;;;;;2.10;1.63;;;;;;;;;;5067467;28;20208;-62
2023/01/17 12:14:22;;;;;;;1.90;1.63;;;;;;;;;;5066460;28;20618;-63
2023/01/17 12:17:10;;;;;;;3.73;2.40;;;;;;;;;;5067857;28;20256;-63
2023/01/17 12:19:37;;;;;;;1.97;1.83;;;;;;;;;;5063655;28;20215;-61
2023/01/17 12:22:08;;;;;;;4.37;2.40;;;;;;;;;;5063061;28;20236;-63
2023/01/17 12:24:58;;;;;;;1.70;1.60;;;;;;;;;;5069781;28;20247;-62
2023/01/17 12:27:26;;;;;;;1.93;1.67;;;;;;;;;;5084669;28;20225;-63
2023/01/17 12:29:57;;;;;;;2.93;1.80;;;;;;;;;;5076891;28;20216;-63
2023/01/17 12:32:40;;;;;;;1.70;1.50;;;;;;;;;;5076211;28;20303;-62
2023/01/17 12:35:11;;;;;;;1.87;1.77;;;;;;;;;;5066671;28;20232;-61
2023/01/17 12:37:47;;;;;;;1.90;1.80;;;;;;;;;;5071582;28;20200;-62
2023/01/17 12:40:34;;;;;;;2.83;2.10;;;;;;;;;;5069056;28;20306;-63
2023/01/17 12:43:01;;;;;;;2.90;2.60;;;;;;;;;;5066683;28;20201;-63
2023/01/17 12:45:32;;;;;;;4.90;2.10;;;;;;;;;;5070967;28;20258;-63
2023/01/17 12:48:10;;;;;;;4.10;2.80;;;;;;;;;;5063350;28;20311;-61
2023/01/17 12:50:47;;;;;;;2.53;2.33;;;;;;;;;;5068862;28;20335;-61
2023/01/17 12:53:19;;;;;;;6.40;4.50;;;;;;;;;;5065847;28;20707;-61
2023/01/17 12:55:53;;;;;;;8.90;5.80;;;;;;;;;;5057948;28;20221;-62
2023/01/17 12:58:28;;;;;;;8.47;3.93;;;;;;;;;;5071754;28;20285;-61
2023/01/17 13:01:08;;;;;;;9.30;4.53;;;;;;;;;;5061241;28;20287;-63
2023/01/17 13:03:35;;;;;;;5.63;3.90;;;;;;;;;;5089129;28;20212;-61
2023/01/17 13:06:05;;;;;;;5.80;4.00;;;;;;;;;;5073852;28;20231;-63
2023/01/17 13:08:40;;;;;;;4.40;4.00;;;;;;;;;;5065787;28;20278;-63
2023/01/17 13:11:15;;;;;;;2.43;2.13;;;;;;;;;;5084511;28;20242;-63
2023/01/17 13:13:43;;;;;;;2.60;2.40;;;;;;;;;;5067945;28;20278;-63
2023/01/17 13:16:16;;;;;;;2.30;2.20;;;;;;;;;;5080043;28;20236;-63
2023/01/17 13:18:48;;;;;;;5.80;2.57;;;;;;;;;;5078965;28;20212;-62
2023/01/17 13:21:24;;;;;;;2.40;2.20;;;;;;;;;;5071285;28;20250;-63
2023/01/17 13:23:58;;;;;;;2.63;2.40;;;;;;;;;;5070608;28;20258;-61
2023/01/17 13:26:31;;;;;;;3.73;2.53;;;;;;;;;;5080233;28;20301;-62
2023/01/17 13:29:04;;;;;;;3.37;2.90;;;;;;;;;;5072346;28;20274;-63
2023/01/17 13:31:39;;;;;;;2.10;2.00;;;;;;;;;;5071532;28;20209;-63
2023/01/17 13:34:45;;;;;;;4.47;2.63;;;;;;;;;;5075724;28;20616;-63
2023/01/17 13:37:21;;;;;;;4.50;3.23;;;;;;;;;;4977807;28;20242;-63
2023/01/17 13:40:11;;;;;;;4.67;2.60;;;;;;;;;;5025097;28;20638;-62
2023/01/17 13:42:51;;;;;;;3.93;3.20;;;;;;;;;;5077386;28;20228;-62
2023/01/17 13:45:20;;;;;;;5.40;3.70;;;;;;;;;;5088850;28;20223;-62
2023/01/17 13:47:47;;;;;;;8.57;4.50;;;;;;;;;;5062270;28;20240;-63
2023/01/17 13:50:30;;;;;;;8.07;4.70;;;;;;;;;;5066891;28;20625;-63
2023/01/17 13:53:04;;;;;;;4.47;3.00;;;;;;;;;;5068607;28;20233;-61
2023/01/17 13:55:44;;;;;;;4.00;2.70;;;;;;;;;;5071643;28;20315;-62
2023/01/17 13:58:53;;;;;;;2.20;2.00;;;;;;;;;;5072996;28;20307;-63
2023/01/17 14:01:24;;;;;;;2.60;2.40;;;;;;;;;;5078305;28;20204;-63
2023/01/17 14:03:51;;;;;;;5.30;3.27;;;;;;;;;;5078346;28;20685;-61
2023/01/17 14:06:29;;;;;;;3.83;2.30;;;;;;;;;;5079267;28;20233;-63
2023/01/17 14:09:12;;;;;;;2.70;2.50;;;;;;;;;;5070783;28;20271;-62
2023/01/17 14:12:14;;;;;;;3.37;2.00;;;;;;;;;;5075012;28;20250;-62
2023/01/17 14:14:42;;;;;;;2.30;2.10;;;;;;;;;;5024807;28;20608;-63
2023/01/17 14:17:15;;;;;;;3.47;2.20;;;;;;;;;;5069500;28;20234;-64
2023/01/17 14:19:43;;;;;;;2.63;2.30;;;;;;;;;;5067199;28;20292;-63
2023/01/17 14:22:20;;;;;;;2.57;1.90;;;;;;;;;;5069419;28;20231;-62
2023/01/17 14:24:57;;;;;;;2.60;2.03;;;;;;;;;;5071809;28;20556;-61
2023/01/17 14:27:25;;;;;;;3.60;2.60;;;;;;;;;;5072212;28;20880;-62
2023/01/17 14:29:59;;;;;;;5.43;3.10;;;;;;;;;;5072242;28;20201;-61
2023/01/17 14:32:37;;;;;;;7.17;3.77;;;;;;;;;;5072664;28;20265;-63
2023/01/17 14:35:04;;;;;;;4.20;3.10;;;;;;;;;;5068410;28;20244;-63
2023/01/17 14:37:32;;;;;;;7.40;4.00;;;;;;;;;;5081962;28;20275;-63
2023/01/17 14:40:00;;;;;;;6.13;4.20;;;;;;;;;;5066902;28;20205;-63
2023/01/17 14:42:29;;;;;;;4.20;3.50;;;;;;;;;;5078206;28;21988;-63
2023/01/17 14:44:59;;;;;;;6.17;3.60;;;;;;;;;;5073981;28;20201;-63
2023/01/17 14:47:29;;;;;;;4.17;3.10;;;;;;;;;;5073452;28;20282;-62
2023/01/17 14:50:20;;;;;;;5.30;3.97;;;;;;;;;;5069096;28;20293;-61
2023/01/17 14:52:48;;;;;;;6.73;4.40;;;;;;;;;;5057314;28;20227;-61
2023/01/17 14:55:19;;;;;;;7.50;5.50;;;;;;;;;;5072171;28;20260;-63
2023/01/17 14:57:57;;;;;;;4.67;3.87;;;;;;;;;;5062000;28;20250;-62
2023/01/17 15:00:28;;;;;;;6.17;3.73;;;;;;;;;;5064725;28;20287;-63
2023/01/17 15:02:56;;;;;;;5.90;3.57;;;;;;;;;;5076320;28;20223;-62
2023/01/17 15:05:25;;;;;;;7.60;4.90;;;;;;;;;;5088602;28;20710;-62
2023/01/17 15:07:54;;;;;;;5.17;3.80;;;;;;;;;;5086481;28;20201;-62
2023/01/17 15:10:23;;;;;;;5.10;2.93;;;;;;;;;;5074116;28;20200;-61
2023/01/17 15:12:51;;;;;;;6.60;3.40;;;;;;;;;;5070365;28;20232;-62
2023/01/17 15:15:37;;;;;;;9.00;3.37;;;;;;;;;;5072509;28;20274;-63
2023/01/17 15:18:28;;;;;;;5.10;4.50;;;;;;;;;;5063826;28;20658;-63
2023/01/17 15:21:03;;;;;;;9.17;5.70;;;;;;;;;;5062004;28;20200;-63
2023/01/17 15:23:33;;;;;;;7.03;5.07;;;;;;;;;;5065677;28;20212;-63
2023/01/17 15:26:01;;;;;;;11.43;6.07;;;;;;;;;;5065296;28;20220;-62
2023/01/17 15:28:29;;;;;;;14.73;12.33;;;;;;;;;;5069501;28;20537;-64
2023/01/17 15:31:08;;;;;;;9.30;5.07;;;;;;;;;;5068949;28;20235;-61
2023/01/17 15:33:37;;;;;;;12.03;9.53;;;;;;;;;;5075670;28;20562;-62
2023/01/17 15:36:05;;;;;;;14.33;9.63;;;;;;;;;;5075699;28;20278;-61
2023/01/17 15:38:32;;;;;;;12.57;8.70;;;;;;;;;;5090268;28;20249;-62
2023/01/17 15:41:13;;;;;;;4.70;4.30;;;;;;;;;;5078893;28;20209;-62
2023/01/17 15:43:41;;;;;;;4.13;3.73;;;;;;;;;;5070543;28;20234;-63
2023/01/17 15:46:22;;;;;;;5.43;3.97;;;;;;;;;;5064769;28;20314;-61
2023/01/17 15:48:50;;;;;;;4.30;3.10;;;;;;;;;;5066750;28;20221;-61
2023/01/17 15:51:36;;;;;;;3.77;3.13;;;;;;;;;;5077175;28;20606;-63
2023/01/17 15:54:22;;;;;;;5.47;3.90;;;;;;;;;;5073198;28;20238;-63
2023/01/17 15:57:00;;;;;;;3.50;3.20;;;;;;;;;;5062178;28;20231;-62
2023/01/17 15:59:34;;;;;;;5.40;3.93;;;;;;;;;;5065851;28;20639;-63
2023/01/17 16:02:01;;;;;;;3.27;2.80;;;;;;;;;;5069957;28;20230;-62
2023/01/17 16:04:34;;;;;;;4.93;2.77;;;;;;;;;;5071076;28;20349;-62
2023/01/17 16:07:09;;;;;;;3.63;3.03;;;;;;;;;;5072006;28;20606;-63
2023/01/17 16:09:43;;;;;;;3.43;2.90;;;;;;;;;;5081156;28;20281;-62
2023/01/17 16:12:11;;;;;;;3.93;2.87;;;;;;;;;;5084176;28;20204;-63
2023/01/17 16:14:39;;;;;;;5.63;3.13;;;;;;;;;;5068675;28;20201;-62
2023/01/17 16:17:27;;;;;;;2.93;2.70;;;;;;;;;;5070044;28;20209;-62
2023/01/17 16:19:54;;;;;;;4.83;3.00;;;;;;;;;;5074411;28;20226;-62
2023/01/17 16:22:23;;;;;;;5.83;3.00;;;;;;;;;;5070565;28;20209;-62
2023/01/17 16:24:52;;;;;;;6.17;3.40;;;;;;;;;;5073619;28;20730;-62
2023/01/17 16:27:20;;;;;;;4.87;3.07;;;;;;;;;;5080464;28;20200;-63
2023/01/17 16:29:47;;;;;;;7.80;3.30;;;;;;;;;;5082321;28;20316;-64
2023/01/17 16:32:15;;;;;;;3.33;3.00;;;;;;;;;;5066585;28;20819;-62